Time;durP1;ratioP1;P1;durP2;ratioP2;P2;SDS_P1;SDS_P2;PMS_P1;PMS_P2;Temp;Humidity;BMP_temperature;BMP_pressure;BME280_temperature;BME280_humidity;BME280_pressure;Samples;Min_cycle;Max_cycle;Signal;HPM_P1;HPM_P2
2022/07/02 00:01:43;;;;;;;;;;;;;;;-146.27;100.00;64033.13;5093567;28;19912;-37
2022/07/02 00:04:11;;;;;;;;;;;;;;;-146.27;100.00;64033.13;5093500;28;19919;-37
2022/07/02 00:06:37;;;;;;;;;;;;;;;-146.27;100.00;64033.13;5093364;28;20019;-37
2022/07/02 00:09:02;;;;;;;;;;;;;;;-146.27;100.00;64033.13;5093750;28;20013;-38
2022/07/02 00:11:27;;;;;;;;;;;;;;;-146.27;100.00;64033.13;5093165;28;19961;-37
2022/07/02 00:13:53;;;;;;;;;;;;;;;-146.27;100.00;64033.13;5093352;28;19912;-36
2022/07/02 00:16:18;;;;;;;;;;;;;;;-146.27;100.00;64033.13;5093690;28;20444;-37
2022/07/02 00:18:44;;;;;;;;;;;;;;;-146.27;100.00;64033.13;5093017;28;19912;-37
2022/07/02 00:21:10;;;;;;;;;;;;;;;-146.27;100.00;64033.13;5093507;28;20289;-37
2022/07/02 00:23:35;;;;;;;;;;;;;;;-146.27;100.00;64033.13;5093153;28;19998;-38
2022/07/02 00:26:08;;;;;;;;;;;;;;;-146.27;100.00;64033.13;5092749;28;19918;-38
2022/07/02 00:28:34;;;;;;;;;;;;;;;-146.27;100.00;64033.13;5091689;28;19958;-38
2022/07/02 00:30:59;;;;;;;;;;;;;;;-146.27;100.00;64033.13;5092811;28;19952;-38
2022/07/02 00:33:25;;;;;;;;;;;;;;;-146.27;100.00;64033.13;5093106;28;19923;-38
2022/07/02 00:35:50;;;;;;;;;;;;;;;-146.27;100.00;64033.13;5092510;28;20006;-38
2022/07/02 00:38:15;;;;;;;;;;;;;;;-146.27;100.00;64033.13;5109708;28;19919;-38
2022/07/02 00:40:42;;;;;;;;;;;;;;;-146.27;100.00;64033.13;5113533;28;19916;-38
2022/07/02 00:43:08;;;;;;;;;;;;;;;-146.27;100.00;64033.13;5113253;28;19951;-38
2022/07/02 00:45:35;;;;;;;;;;;;;;;-146.27;100.00;64033.13;5113026;28;19959;-38
2022/07/02 00:48:00;;;;;;;;;;;;;;;-146.27;100.00;64033.13;5113377;28;19916;-38
2022/07/02 00:50:26;;;;;;;;;;;;;;;-146.27;100.00;64033.13;5113193;27;19920;-38
2022/07/02 00:52:51;;;;;;;;;;;;;;;-146.27;100.00;64033.13;5113067;28;19922;-38
2022/07/02 00:55:17;;;;;;;;;;;;;;;-146.27;100.00;64033.13;5112656;28;20314;-38
2022/07/02 00:57:45;;;;;;;;;;;;;;;-146.27;100.00;64033.13;5113267;28;19914;-38
2022/07/02 01:00:11;;;;;;;;;;;;;;;-146.27;100.00;64033.13;5112884;28;19911;-38
2022/07/02 01:02:38;;;;;;;;;;;;;;;-146.27;100.00;64033.13;5112870;28;19922;-38
2022/07/02 01:05:03;;;;;;;;;;;;;;;-146.27;100.00;64033.13;5112553;28;19919;-38
2022/07/02 01:07:28;;;;;;;;;;;;;;;-146.27;100.00;64033.13;5112750;28;20326;-38
2022/07/02 01:12:41;;;;;;;;;;;;;;;-146.27;100.00;64033.13;5113054;28;19919;-48
2022/07/02 01:15:07;;;;;;;;;;;;;;;-146.27;100.00;64033.13;5112311;28;19916;-48
2022/07/02 01:17:32;;;;;;;;;;;;;;;-146.27;100.00;64033.13;5112432;28;20014;-47
2022/07/02 01:19:57;;;;;;;;;;;;;;;-146.27;100.00;64033.13;5112142;28;19919;-49
2022/07/02 01:22:22;;;;;;;;;;;;;;;-146.27;100.00;64033.13;5112269;28;19938;-48
2022/07/02 01:24:49;;;;;;;;;;;;;;;-146.27;100.00;64033.13;5112487;28;19912;-49
2022/07/02 01:27:15;;;;;;;;;;;;;;;-146.27;100.00;64033.13;5105581;28;20351;-48
2022/07/02 01:29:40;;;;;;;;;;;;;;;-146.27;100.00;64033.13;5091995;28;19912;-47
2022/07/02 01:32:06;;;;;;;;;;;;;;;-146.27;100.00;64033.13;5091389;28;20315;-47
2022/07/02 01:34:36;;;;;;;;;;;;;;;-146.27;100.00;64033.13;5092122;28;20106;-47
2022/07/02 01:37:02;;;;;;;;;;;;;;;-146.27;100.00;64033.13;5098436;28;19935;-47
2022/07/02 01:39:27;;;;;;;;;;;;;;;-146.27;100.00;64033.13;5111852;28;19994;-47
2022/07/02 01:41:53;;;;;;;;;;;;;;;-146.27;100.00;64033.13;5111258;28;19911;-48
2022/07/02 01:44:18;;;;;;;;;;;;;;;-146.27;100.00;64033.13;5111639;28;20351;-48
2022/07/02 01:46:45;;;;;;;;;;;;;;;-146.27;100.00;64033.13;5111896;28;19911;-47
2022/07/02 01:49:10;;;;;;;;;;;;;;;-146.27;100.00;64033.13;5111886;28;19912;-47
2022/07/02 01:51:35;;;;;;;;;;;;;;;-146.27;100.00;64033.13;5112255;28;19968;-46
2022/07/02 01:54:01;;;;;;;;;;;;;;;-146.27;100.00;64033.13;5111632;28;20367;-47
2022/07/02 01:56:30;;;;;;;;;;;;;;;-146.27;100.00;64033.13;5112098;28;19916;-47
2022/07/02 01:58:55;;;;;;;;;;;;;;;-146.27;100.00;64033.13;5111949;28;20041;-47
2022/07/02 02:01:20;;;;;;;;;;;;;;;-146.27;100.00;64033.13;5111964;28;20316;-49
2022/07/02 02:03:45;;;;;;;;;;;;;;;-146.27;100.00;64033.13;5111547;28;19912;-47
2022/07/02 02:06:11;;;;;;;;;;;;;;;-146.27;100.00;64033.13;5111507;28;20417;-47
2022/07/02 02:08:36;;;;;;;;;;;;;;;-146.27;100.00;64033.13;5111131;28;19915;-46
2022/07/02 02:11:01;;;;;;;;;;;;;;;-146.27;100.00;64033.13;5111382;28;19983;-47
2022/07/02 02:13:27;;;;;;;;;;;;;;;-146.27;100.00;64033.13;5111893;28;19911;-48
2022/07/02 02:15:52;;;;;;;;;;;;;;;-146.27;100.00;64033.13;5110817;28;19916;-48
2022/07/02 02:18:17;;;;;;;;;;;;;;;-146.27;100.00;64033.13;5111490;28;20025;-46
2022/07/02 02:20:42;;;;;;;;;;;;;;;-146.27;100.00;64033.13;5111578;28;19946;-47
2022/07/02 02:23:08;;;;;;;;;;;;;;;-146.27;100.00;64033.13;5111562;28;19911;-48
2022/07/02 02:25:33;;;;;;;;;;;;;;;-146.27;100.00;64033.13;5110776;28;19919;-47
2022/07/02 02:27:59;;;;;;;;;;;;;;;-146.27;100.00;64033.13;5098171;28;19931;-48
2022/07/02 02:30:24;;;;;;;;;;;;;;;-146.27;100.00;64033.13;5090927;28;20356;-47
2022/07/02 02:32:50;;;;;;;;;;;;;;;-146.27;100.00;64033.13;5091120;28;19916;-48
2022/07/02 02:35:15;;;;;;;;;;;;;;;-146.27;100.00;64033.13;5090878;28;20390;-46
2022/07/02 02:37:40;;;;;;;;;;;;;;;-146.27;100.00;64033.13;5103000;28;19920;-50
2022/07/02 02:40:06;;;;;;;;;;;;;;;-146.27;100.00;64033.13;5111876;28;19946;-48
2022/07/02 02:42:31;;;;;;;;;;;;;;;-146.27;100.00;64033.13;5111403;28;19923;-48
2022/07/02 02:44:56;;;;;;;;;;;;;;;-146.27;100.00;64033.13;5111463;28;20388;-47
2022/07/02 02:47:23;;;;;;;;;;;;;;;-146.27;100.00;64033.13;5111064;28;20006;-48
2022/07/02 02:49:48;;;;;;;;;;;;;;;-146.27;100.00;64033.13;5111517;28;20455;-47
2022/07/02 02:52:13;;;;;;;;;;;;;;;-146.27;100.00;64033.13;5113321;28;20028;-48
2022/07/02 02:54:38;;;;;;;;;;;;;;;-146.27;100.00;64033.13;5115392;28;19911;-46
2022/07/02 02:57:04;;;;;;;;;;;;;;;-146.27;100.00;64033.13;5115306;28;19915;-48
2022/07/02 02:59:29;;;;;;;;;;;;;;;-146.27;100.00;64033.13;5115408;28;19919;-49
2022/07/02 03:01:54;;;;;;;;;;;;;;;-146.27;100.00;64033.13;5115437;28;19918;-50
2022/07/02 03:04:20;;;;;;;;;;;;;;;-146.27;100.00;64033.13;5115114;28;19965;-46
2022/07/02 03:06:45;;;;;;;;;;;;;;;-146.27;100.00;64033.13;5115134;28;20061;-46
2022/07/02 03:09:10;;;;;;;;;;;;;;;-146.27;100.00;64033.13;5114738;28;19984;-46
2022/07/02 03:11:36;;;;;;;;;;;;;;;-146.27;100.00;64033.13;5115389;28;19912;-49
2022/07/02 03:14:01;;;;;;;;;;;;;;;-146.27;100.00;64033.13;5115240;28;19983;-46
2022/07/02 03:16:26;;;;;;;;;;;;;;;-146.27;100.00;64033.13;5115396;28;20011;-46
2022/07/02 03:18:51;;;;;;;;;;;;;;;-146.27;100.00;64033.13;5114550;28;20409;-48
2022/07/02 03:21:17;;;;;;;;;;;;;;;-146.27;100.00;64033.13;5115462;28;19947;-48
2022/07/02 03:23:42;;;;;;;;;;;;;;;-146.27;100.00;64033.13;5114823;28;19935;-46
2022/07/02 03:26:07;;;;;;;;;;;;;;;-146.27;100.00;64033.13;5115102;28;20352;-47
2022/07/02 03:28:33;;;;;;;;;;;;;;;-146.27;100.00;64033.13;5096746;28;20307;-46
2022/07/02 03:30:58;;;;;;;;;;;;;;;-146.27;100.00;64033.13;5093850;28;19955;-48
2022/07/02 03:33:24;;;;;;;;;;;;;;;-146.27;100.00;64033.13;5094813;28;19985;-49
2022/07/02 03:35:49;;;;;;;;;;;;;;;-146.27;100.00;64033.13;5094498;28;19932;-49
2022/07/02 03:38:14;;;;;;;;;;;;;;;-146.27;100.00;64033.13;5111460;28;20052;-46
2022/07/02 03:40:39;;;;;;;;;;;;;;;-146.27;100.00;64033.13;5114620;28;20120;-50
2022/07/02 03:43:05;;;;;;;;;;;;;;;-146.27;100.00;64033.13;5114705;28;20231;-48
2022/07/02 03:45:30;;;;;;;;;;;;;;;-146.27;100.00;64033.13;5114469;28;19912;-46
2022/07/02 03:47:55;;;;;;;;;;;;;;;-146.27;100.00;64033.13;5114508;28;19937;-50
2022/07/02 03:50:21;;;;;;;;;;;;;;;-146.27;100.00;64033.13;5114342;28;20363;-48
2022/07/02 03:52:46;;;;;;;;;;;;;;;-146.27;100.00;64033.13;5114310;28;19938;-51
2022/07/02 03:55:11;;;;;;;;;;;;;;;-146.27;100.00;64033.13;5115988;28;19967;-47
2022/07/02 03:57:37;;;;;;;;;;;;;;;-146.27;100.00;64033.13;5116582;28;19922;-37
2022/07/02 04:00:06;;;;;;;;;;;;;;;-146.27;100.00;64033.13;5100837;28;19913;-45
2022/07/02 04:02:31;;;;;;;;;;;;;;;-146.27;100.00;64033.13;5094678;28;20303;-37
2022/07/02 04:04:57;;;;;;;;;;;;;;;-146.27;100.00;64033.13;5095085;28;19912;-38
2022/07/02 04:07:22;;;;;;;;;;;;;;;-146.27;100.00;64033.13;5096021;28;19943;-38
2022/07/02 04:09:47;;;;;;;;;;;;;;;-146.27;100.00;64033.13;5094962;28;19964;-46
2022/07/02 04:12:13;;;;;;;;;;;;;;;-146.27;100.00;64033.13;5093329;28;20328;-47
2022/07/02 04:14:38;;;;;;;;;;;;;;;-146.27;100.00;64033.13;5091058;28;19916;-46
2022/07/02 04:17:03;;;;;;;;;;;;;;;-146.27;100.00;64033.13;5082335;28;19913;-48
2022/07/02 04:19:29;;;;;;;;;;;;;;;-146.27;100.00;64033.13;5072894;28;19920;-48
2022/07/02 04:21:54;;;;;;;;;;;;;;;-146.27;100.00;64033.13;5072847;28;19913;-48
2022/07/02 04:24:19;;;;;;;;;;;;;;;-146.27;100.00;64033.13;5072542;28;20007;-47
2022/07/02 04:26:45;;;;;;;;;;;;;;;-146.27;100.00;64033.13;5074278;28;19912;-37
2022/07/02 04:29:10;;;;;;;;;;;;;;;-146.27;100.00;64033.13;5090409;28;19962;-37
2022/07/02 04:31:35;;;;;;;;;;;;;;;-146.27;100.00;64033.13;5092806;28;20350;-38
2022/07/02 04:34:01;;;;;;;;;;;;;;;-146.27;100.00;64033.13;5092501;28;20015;-36
2022/07/02 04:36:26;;;;;;;;;;;;;;;-146.27;100.00;64033.13;5094299;28;20505;-38
2022/07/02 04:38:51;;;;;;;;;;;;;;;-146.27;100.00;64033.13;5113155;28;19958;-36
2022/07/02 04:41:17;;;;;;;;;;;;;;;-146.27;100.00;64033.13;5112992;28;19912;-37
2022/07/02 04:43:42;;;;;;;;;;;;;;;-146.27;100.00;64033.13;5112647;28;19934;-37
2022/07/02 04:46:07;;;;;;;;;;;;;;;-146.27;100.00;64033.13;5112962;28;20014;-37
2022/07/02 04:48:32;;;;;;;;;;;;;;;-146.27;100.00;64033.13;5112716;28;19918;-37
2022/07/02 04:50:58;;;;;;;;;;;;;;;-146.27;100.00;64033.13;5112784;28;19968;-36
2022/07/02 04:53:23;;;;;;;;;;;;;;;-146.27;100.00;64033.13;5109506;28;19919;-37
2022/07/02 04:55:48;;;;;;;;;;;;;;;-146.27;100.00;64033.13;5091206;28;20393;-37
2022/07/02 04:58:13;;;;;;;;;;;;;;;-146.27;100.00;64033.13;5080524;28;19916;-37
2022/07/02 05:00:39;;;;;;;;;;;;;;;-146.27;100.00;64033.13;5073822;28;19936;-37
2022/07/02 05:03:04;;;;;;;;;;;;;;;-146.27;100.00;64033.13;5071406;28;19916;-37
2022/07/02 05:05:29;;;;;;;;;;;;;;;-146.27;100.00;64033.13;5071050;28;20491;-36
2022/07/02 05:07:55;;;;;;;;;;;;;;;-146.27;100.00;64033.13;5071199;28;19919;-36
2022/07/02 05:10:21;;;;;;;;;;;;;;;-146.27;100.00;64033.13;5077258;28;19919;-38
2022/07/02 05:12:46;;;;;;;;;;;;;;;-146.27;100.00;64033.13;5091270;28;19912;-36
2022/07/02 05:15:11;;;;;;;;;;;;;;;-146.27;100.00;64033.13;5091156;28;19926;-49
2022/07/02 05:17:36;;;;;;;;;;;;;;;-146.27;100.00;64033.13;5090516;28;19938;-48
2022/07/02 05:20:02;;;;;;;;;;;;;;;-146.27;100.00;64033.13;5090534;28;19916;-47
2022/07/02 05:22:27;;;;;;;;;;;;;;;-146.27;100.00;64033.13;5090726;28;19989;-48
2022/07/02 05:24:53;;;;;;;;;;;;;;;-146.27;100.00;64033.13;5091122;28;20359;-48
2022/07/02 05:27:18;;;;;;;;;;;;;;;-146.27;100.00;64033.13;5091191;28;19962;-48
2022/07/02 05:29:43;;;;;;;;;;;;;;;-146.27;100.00;64033.13;5091312;28;19912;-49
2022/07/02 05:32:09;;;;;;;;;;;;;;;-146.27;100.00;64033.13;5091155;28;19919;-50
2022/07/02 05:34:34;;;;;;;;;;;;;;;-146.27;100.00;64033.13;5090747;28;19971;-46
2022/07/02 05:36:59;;;;;;;;;;;;;;;-146.27;100.00;64033.13;5096024;28;20427;-49
2022/07/02 05:39:25;;;;;;;;;;;;;;;-146.27;100.00;64033.13;5110504;28;19935;-50
2022/07/02 05:41:50;;;;;;;;;;;;;;;-146.27;100.00;64033.13;5110420;28;20372;-48
2022/07/02 05:44:15;;;;;;;;;;;;;;;-146.27;100.00;64033.13;5110752;28;19918;-48
2022/07/02 05:46:40;;;;;;;;;;;;;;;-146.27;100.00;64033.13;5110748;28;20429;-37
2022/07/02 05:49:06;;;;;;;;;;;;;;;-146.27;100.00;64033.13;5107484;28;20026;-47
2022/07/02 05:51:31;;;;;;;;;;;;;;;-146.27;100.00;64033.13;5090084;28;20348;-48
2022/07/02 05:53:56;;;;;;;;;;;;;;;-146.27;100.00;64033.13;5090640;28;19923;-46
2022/07/02 05:56:22;;;;;;;;;;;;;;;-146.27;100.00;64033.13;5091410;28;20521;-49
2022/07/02 05:58:47;;;;;;;;;;;;;;;-146.27;100.00;64033.13;5091188;28;19912;-49
2022/07/02 06:01:12;;;;;;;;;;;;;;;-146.27;100.00;64033.13;5091079;28;19912;-50
2022/07/02 06:03:37;;;;;;;;;;;;;;;-146.27;100.00;64033.13;5090939;28;20015;-47
2022/07/02 06:08:47;;;;;;;;;;;;;;;-146.27;100.00;64033.13;5091166;28;19968;-50
2022/07/02 06:11:12;;;;;;;;;;;;;;;-146.27;100.00;64033.13;5090523;28;20006;-48
2022/07/02 06:13:37;;;;;;;;;;;;;;;-146.27;100.00;64033.13;5090679;28;19926;-48
2022/07/02 06:16:03;;;;;;;;;;;;;;;-146.27;100.00;64033.13;5090634;28;19916;-49
2022/07/02 06:18:28;;;;;;;;;;;;;;;-146.27;100.00;64033.13;5091091;28;19923;-48
2022/07/02 06:20:54;;;;;;;;;;;;;;;-146.27;100.00;64033.13;5090931;28;19931;-47
2022/07/02 06:23:22;;;;;;;;;;;;;;;-146.27;100.00;64033.13;5091013;28;19912;-47
2022/07/02 06:25:48;;;;;;;;;;;;;;;-146.27;100.00;64033.13;5090482;28;19912;-49
2022/07/02 06:28:13;;;;;;;;;;;;;;;-146.27;100.00;64033.13;5090510;28;20318;-48
2022/07/02 06:30:38;;;;;;;;;;;;;;;-146.27;100.00;64033.13;5090521;28;19919;-47
2022/07/02 06:33:04;;;;;;;;;;;;;;;-146.27;100.00;64033.13;5090505;28;20414;-49
2022/07/02 06:35:29;;;;;;;;;;;;;;;-146.27;100.00;64033.13;5089933;28;19920;-48
2022/07/02 06:37:54;;;;;;;;;;;;;;;-146.27;100.00;64033.13;5104949;28;19923;-50
2022/07/02 06:40:20;;;;;;;;;;;;;;;-146.27;100.00;64033.13;5110966;28;19947;-51
2022/07/02 06:42:45;;;;;;;;;;;;;;;-146.27;100.00;64033.13;5110885;28;19951;-47
2022/07/02 06:45:11;;;;;;;;;;;;;;;-146.27;100.00;64033.13;5110658;28;20328;-51
2022/07/02 06:47:39;;;;;;;;;;;;;;;-146.27;100.00;64033.13;5110937;28;19912;-49
2022/07/02 06:50:06;;;;;;;;;;;;;;;-146.27;100.00;64033.13;5110926;28;19911;-47
2022/07/02 06:52:31;;;;;;;;;;;;;;;-146.27;100.00;64033.13;5110706;28;20057;-51
2022/07/02 06:54:57;;;;;;;;;;;;;;;-146.27;100.00;64033.13;5110592;28;19957;-51
2022/07/02 06:57:23;;;;;;;;;;;;;;;-146.27;100.00;64033.13;5110936;28;19916;-51
2022/07/02 06:59:48;;;;;;;;;;;;;;;-146.27;100.00;64033.13;5110797;28;20480;-50
2022/07/02 07:02:13;;;;;;;;;;;;;;;-146.27;100.00;64033.13;5110492;28;19943;-51
2022/07/02 07:04:39;;;;;;;;;;;;;;;-146.27;100.00;64033.13;5110623;28;19934;-51
2022/07/02 07:07:05;;;;;;;;;;;;;;;-146.27;100.00;64033.13;5110733;28;19912;-47
2022/07/02 07:09:31;;;;;;;;;;;;;;;-146.27;100.00;64033.13;5110849;28;19912;-49
2022/07/02 07:11:56;;;;;;;;;;;;;;;-146.27;100.00;64033.13;5110448;28;19911;-46
2022/07/02 07:14:22;;;;;;;;;;;;;;;-146.27;100.00;64033.13;5109763;28;19920;-48
2022/07/02 07:16:47;;;;;;;;;;;;;;;-146.27;100.00;64033.13;5110509;28;20310;-47
2022/07/02 07:19:13;;;;;;;;;;;;;;;-146.27;100.00;64033.13;5110412;28;19912;-49
2022/07/02 07:21:41;;;;;;;;;;;;;;;-146.27;100.00;64033.13;5106776;28;19919;-48
2022/07/02 07:24:07;;;;;;;;;;;;;;;-146.27;100.00;64033.13;5089571;28;19944;-47
2022/07/02 07:26:33;;;;;;;;;;;;;;;-146.27;100.00;64033.13;5090111;28;19915;-48
2022/07/02 07:28:58;;;;;;;;;;;;;;;-146.27;100.00;64033.13;5089945;28;19935;-49
2022/07/02 07:31:24;;;;;;;;;;;;;;;-146.27;100.00;64033.13;5089714;28;20336;-48
2022/07/02 07:33:50;;;;;;;;;;;;;;;-146.27;100.00;64033.13;5089684;28;19927;-48
2022/07/02 07:36:15;;;;;;;;;;;;;;;-146.27;100.00;64033.13;5089976;28;19924;-48
2022/07/02 07:38:41;;;;;;;;;;;;;;;-146.27;100.00;64033.13;5112310;28;19912;-48
2022/07/02 07:41:06;;;;;;;;;;;;;;;-146.27;100.00;64033.13;5113825;28;19961;-52
2022/07/02 07:43:31;;;;;;;;;;;;;;;-146.27;100.00;64033.13;5114058;28;19927;-50
2022/07/02 07:45:57;;;;;;;;;;;;;;;-146.27;100.00;64033.13;5113690;28;19961;-51
2022/07/02 07:48:22;;;;;;;;;;;;;;;-146.27;100.00;64033.13;5113932;28;20019;-49
2022/07/02 07:50:47;;;;;;;;;;;;;;;-146.27;100.00;64033.13;5113949;28;19912;-49
2022/07/02 07:53:12;;;;;;;;;;;;;;;-146.27;100.00;64033.13;5114308;28;19912;-49
2022/07/02 07:55:39;;;;;;;;;;;;;;;-146.27;100.00;64033.13;5113358;28;20481;-49
2022/07/02 07:58:04;;;;;;;;;;;;;;;-146.27;100.00;64033.13;5113391;28;19987;-51
2022/07/02 08:00:30;;;;;;;;;;;;;;;-146.27;100.00;64033.13;5113830;28;19916;-50
2022/07/02 08:02:55;;;;;;;;;;;;;;;-146.27;100.00;64033.13;5113604;28;19955;-48
2022/07/02 08:05:20;;;;;;;;;;;;;;;-146.27;100.00;64033.13;5113457;28;20217;-50
2022/07/02 08:07:46;;;;;;;;;;;;;;;-146.27;100.00;64033.13;5113483;28;19912;-49
2022/07/02 08:10:11;;;;;;;;;;;;;;;-146.27;100.00;64033.13;5113686;28;19965;-48
2022/07/02 08:12:37;;;;;;;;;;;;;;;-146.27;100.00;64033.13;5113777;28;20228;-49
2022/07/02 08:15:03;;;;;;;;;;;;;;;-146.27;100.00;64033.13;5113257;28;20033;-48
2022/07/02 08:17:29;;;;;;;;;;;;;;;-146.27;100.00;64033.13;5113166;28;19935;-50
2022/07/02 08:19:55;;;;;;;;;;;;;;;-146.27;100.00;64033.13;5113440;28;20332;-49
2022/07/02 08:22:20;;;;;;;;;;;;;;;-146.27;100.00;64033.13;5104599;28;19994;-48
2022/07/02 08:24:45;;;;;;;;;;;;;;;-146.27;100.00;64033.13;5092772;28;20386;-47
2022/07/02 08:27:11;;;;;;;;;;;;;;;-146.27;100.00;64033.13;5093022;28;19911;-50
2022/07/02 08:29:36;;;;;;;;;;;;;;;-146.27;100.00;64033.13;5092663;28;20340;-48
2022/07/02 08:32:03;;;;;;;;;;;;;;;-146.27;100.00;64033.13;5092631;28;19912;-51
2022/07/02 08:34:28;;;;;;;;;;;;;;;-146.27;100.00;64033.13;5092987;28;20014;-48
2022/07/02 08:36:53;;;;;;;;;;;;;;;-146.27;100.00;64033.13;5098232;28;20104;-50
2022/07/02 08:39:19;;;;;;;;;;;;;;;-146.27;100.00;64033.13;5112972;28;20379;-50
2022/07/02 08:41:46;;;;;;;;;;;;;;;-146.27;100.00;64033.13;5112729;28;20360;-50
2022/07/02 08:44:12;;;;;;;;;;;;;;;-146.27;100.00;64033.13;5112560;28;20402;-49
2022/07/02 08:46:41;;;;;;;;;;;;;;;-146.27;100.00;64033.13;5112979;28;20004;-46
2022/07/02 08:49:07;;;;;;;;;;;;;;;-146.27;100.00;64033.13;5112487;28;19912;-51
2022/07/02 08:51:32;;;;;;;;;;;;;;;-146.27;100.00;64033.13;5112669;28;20322;-48
2022/07/02 08:53:59;;;;;;;;;;;;;;;-146.27;100.00;64033.13;5113121;28;19912;-50
2022/07/02 08:56:26;;;;;;;;;;;;;;;-146.27;100.00;64033.13;5112718;28;19915;-48
2022/07/02 08:58:52;;;;;;;;;;;;;;;-146.27;100.00;64033.13;5112852;28;19954;-51
2022/07/02 09:01:18;;;;;;;;;;;;;;;-146.27;100.00;64033.13;5112250;28;20016;-50
2022/07/02 09:03:44;;;;;;;;;;;;;;;-146.27;100.00;64033.13;5112466;28;20302;-51
2022/07/02 09:06:09;;;;;;;;;;;;;;;-146.27;100.00;64033.13;5112661;28;20406;-51
2022/07/02 09:08:35;;;;;;;;;;;;;;;-146.27;100.00;64033.13;5112616;28;20000;-51
2022/07/02 09:11:00;;;;;;;;;;;;;;;-146.27;100.00;64033.13;5112010;28;20418;-47
2022/07/02 09:13:26;;;;;;;;;;;;;;;-146.27;100.00;64033.13;5112121;27;19912;-51
2022/07/02 09:15:52;;;;;;;;;;;;;;;-146.27;100.00;64033.13;5111953;28;19962;-49
2022/07/02 09:18:17;;;;;;;;;;;;;;;-146.27;100.00;64033.13;5112896;28;20279;-51
2022/07/02 09:20:43;;;;;;;;;;;;;;;-146.27;100.00;64033.13;5112693;28;19916;-50
2022/07/02 09:23:09;;;;;;;;;;;;;;;-146.27;100.00;64033.13;5096593;28;20014;-51
2022/07/02 09:25:35;;;;;;;;;;;;;;;-146.27;100.00;64033.13;5091473;28;20003;-52
2022/07/02 09:28:04;;;;;;;;;;;;;;;-146.27;100.00;64033.13;5090156;28;19966;-48
2022/07/02 09:30:32;;;;;;;;;;;;;;;-146.27;100.00;64033.13;5091546;28;19916;-52
2022/07/02 09:35:41;;;;;;;;;;;;;;;-146.27;100.00;64033.13;5091319;28;19927;-52
2022/07/02 09:38:08;;;;;;;;;;;;;;;-146.27;100.00;64033.13;5107496;28;20023;-50
2022/07/02 09:40:33;;;;;;;;;;;;;;;-146.27;100.00;64033.13;5111868;28;19937;-51
2022/07/02 09:42:58;;;;;;;;;;;;;;;-146.27;100.00;64033.13;5111370;28;20390;-49
2022/07/02 09:45:24;;;;;;;;;;;;;;;-146.27;100.00;64033.13;5111122;28;20025;-49
2022/07/02 09:47:49;;;;;;;;;;;;;;;-146.27;100.00;64033.13;5111452;28;19911;-51
2022/07/02 09:50:16;;;;;;;;;;;;;;;-146.27;100.00;64033.13;5100344;28;20371;-49
2022/07/02 09:52:49;;;;;;;;;;;;;;;-146.27;100.00;64033.13;5101024;28;19919;-51
2022/07/02 09:55:18;;;;;;;;;;;;;;;-146.27;100.00;64033.13;5098249;28;20256;-52
2022/07/02 09:57:54;;;;;;;;;;;;;;;-146.27;100.00;64033.13;5100679;28;19935;-49
2022/07/02 10:00:20;;;;;;;;;;;;;;;-146.27;100.00;64033.13;5100406;28;20368;-52
2022/07/02 10:02:49;;;;;;;;;;;;;;;-146.27;100.00;64033.13;5099944;28;20387;-48
2022/07/02 10:05:14;;;;;;;;;;;;;;;-146.27;100.00;64033.13;5101739;28;19998;-48
2022/07/02 10:07:40;;;;;;;;;;;;;;;-146.27;100.00;64033.13;5101928;28;20402;-48
2022/07/02 10:10:05;;;;;;;;;;;;;;;-146.27;100.00;64033.13;5100692;28;19923;-48
2022/07/02 10:12:31;;;;;;;;;;;;;;;-146.27;100.00;64033.13;5102504;28;19912;-48
2022/07/02 10:14:57;;;;;;;;;;;;;;;-146.27;100.00;64033.13;5100553;28;19912;-49
2022/07/02 10:17:23;;;;;;;;;;;;;;;-146.27;100.00;64033.13;5100225;28;19912;-47
2022/07/02 10:19:51;;;;;;;;;;;;;;;-146.27;100.00;64033.13;5102063;28;20394;-51
2022/07/02 10:22:16;;;;;;;;;;;;;;;-146.27;100.00;64033.13;5099309;28;19918;-47
2022/07/02 10:24:42;;;;;;;;;;;;;;;-146.27;100.00;64033.13;5101485;28;19912;-48
2022/07/02 10:27:07;;;;;;;;;;;;;;;-146.27;100.00;64033.13;5099838;28;19935;-49
2022/07/02 10:29:33;;;;;;;;;;;;;;;-146.27;100.00;64033.13;5101914;28;20315;-48
2022/07/02 10:32:06;;;;;;;;;;;;;;;-146.27;100.00;64033.13;5101097;28;20364;-47
2022/07/02 10:34:42;;;;;;;;;;;;;;;-146.27;100.00;64033.13;5097662;28;19984;-48
2022/07/02 10:37:07;;;;;;;;;;;;;;;-146.27;100.00;64033.13;5100967;28;19965;-49
2022/07/02 10:39:41;;;;;;;;;;;;;;;-146.27;100.00;64033.13;5100093;28;20007;-49
2022/07/02 10:42:07;;;;;;;;;;;;;;;-146.27;100.00;64033.13;5099063;28;19955;-50
2022/07/02 10:44:39;;;;;;;;;;;;;;;-146.27;100.00;64033.13;5099453;28;19958;-48
2022/07/02 10:47:05;;;;;;;;;;;;;;;-146.27;100.00;64033.13;5099118;28;19911;-48
2022/07/02 10:49:31;;;;;;;;;;;;;;;-146.27;100.00;64033.13;5101531;28;19919;-48
2022/07/02 10:51:59;;;;;;;;;;;;;;;-146.27;100.00;64033.13;5100435;28;19912;-49
2022/07/02 10:54:30;;;;;;;;;;;;;;;-146.27;100.00;64033.13;5100157;28;20291;-50
2022/07/02 10:56:56;;;;;;;;;;;;;;;-146.27;100.00;64033.13;5098094;28;20345;-49
2022/07/02 10:59:24;;;;;;;;;;;;;;;-146.27;100.00;64033.13;5100229;28;19912;-51
2022/07/02 11:01:59;;;;;;;;;;;;;;;-146.27;100.00;64033.13;5101776;28;20271;-50
2022/07/02 11:04:24;;;;;;;;;;;;;;;-146.27;100.00;64033.13;5101263;28;19912;-48
2022/07/02 11:06:50;;;;;;;;;;;;;;;-146.27;100.00;64033.13;5098229;28;19995;-49
2022/07/02 11:09:15;;;;;;;;;;;;;;;-146.27;100.00;64033.13;5100004;28;19912;-49
2022/07/02 11:11:41;;;;;;;;;;;;;;;-146.27;100.00;64033.13;5100431;28;20034;-50
2022/07/02 11:14:07;;;;;;;;;;;;;;;-146.27;100.00;64033.13;5104487;28;19955;-51
2022/07/02 11:16:36;;;;;;;;;;;;;;;-146.27;100.00;64033.13;5104065;28;20435;-48
2022/07/02 11:19:02;;;;;;;;;;;;;;;-146.27;100.00;64033.13;5103903;28;20367;-48
2022/07/02 11:21:29;;;;;;;;;;;;;;;-146.27;100.00;64033.13;5105649;28;19912;-51
2022/07/02 11:23:54;;;;;;;;;;;;;;;-146.27;100.00;64033.13;5104010;28;19912;-49
2022/07/02 11:26:20;;;;;;;;;;;;;;;-146.27;100.00;64033.13;5104659;28;19911;-51
2022/07/02 11:28:46;;;;;;;;;;;;;;;-146.27;100.00;64033.13;5105686;28;19916;-49
2022/07/02 11:31:12;;;;;;;;;;;;;;;-146.27;100.00;64033.13;5100914;28;19934;-49
2022/07/02 11:33:41;;;;;;;;;;;;;;;-146.27;100.00;64033.13;5111770;28;19962;-38
2022/07/02 11:36:06;;;;;;;;;;;;;;;-146.27;100.00;64033.13;5113931;28;19931;-38
2022/07/02 11:38:38;;;;;;;;;;;;;;;-146.27;100.00;64033.13;5114229;28;19916;-38
2022/07/02 11:41:24;;;;;;;;;;;;;;;-146.27;100.00;64033.13;5114409;28;19998;-38
2022/07/02 11:43:51;;;;;;;;;;;;;;;-146.27;100.00;64033.13;5088776;28;20253;-38
2022/07/02 11:46:17;;;;;;;;;;;;;;;-146.27;100.00;64033.13;5088161;28;19980;-38
2022/07/02 11:48:43;;;;;;;;;;;;;;;-146.27;100.00;64033.13;5084944;28;19920;-38
2022/07/02 11:51:08;;;;;;;;;;;;;;;-146.27;100.00;64033.13;5084096;28;20283;-37
2022/07/02 11:53:34;;;;;;;;;;;;;;;-146.27;100.00;64033.13;5088513;28;20311;-38
2022/07/02 11:56:05;;;;;;;;;;;;;;;-146.27;100.00;64033.13;5093330;28;20053;-37
2022/07/02 11:58:37;;;;;;;;;;;;;;;-146.27;100.00;64033.13;5092791;28;19916;-37
2022/07/02 12:01:03;;;;;;;;;;;;;;;-146.27;100.00;64033.13;5091921;28;19912;-37
2022/07/02 12:03:28;;;;;;;;;;;;;;;-146.27;100.00;64033.13;5093409;28;19993;-38
2022/07/02 12:05:53;;;;;;;;;;;;;;;-146.27;100.00;64033.13;5091467;28;20348;-38
2022/07/02 12:08:18;;;;;;;;;;;;;;;-146.27;100.00;64033.13;5091760;28;19912;-37
2022/07/02 12:10:44;;;;;;;;;;;;;;;-146.27;100.00;64033.13;5092291;28;19912;-37
2022/07/02 12:13:10;;;;;;;;;;;;;;;-146.27;100.00;64033.13;5092152;28;19919;-37
2022/07/02 12:15:45;;;;;;;;;;;;;;;-146.27;100.00;64033.13;5092117;28;19919;-37
2022/07/02 12:18:14;;;;;;;;;;;;;;;-146.27;100.00;64033.13;5091868;28;19922;-37
2022/07/02 12:20:39;;;;;;;;;;;;;;;-146.27;100.00;64033.13;5093055;28;19916;-50